sensor_id;sensor_type;location;lat;lon;timestamp;P1;durP1;ratioP1;P2;durP2;ratioP2
12745;SDS011;6437;53.686;10.030;2023-02-28T00:02:49;7.07;;;1.75;;
12745;SDS011;6437;53.686;10.030;2023-02-28T00:05:51;10.75;;;2.85;;
12745;SDS011;6437;53.686;10.030;2023-02-28T00:08:54;8.68;;;1.67;;
12745;SDS011;6437;53.686;10.030;2023-02-28T00:11:56;7.35;;;1.88;;
12745;SDS011;6437;53.686;10.030;2023-02-28T00:14:58;11.80;;;2.25;;
12745;SDS011;6437;53.686;10.030;2023-02-28T00:18:01;6.38;;;1.35;;
12745;SDS011;6437;53.686;10.030;2023-02-28T00:21:03;5.88;;;1.50;;
12745;SDS011;6437;53.686;10.030;2023-02-28T00:24:07;9.43;;;1.40;;
12745;SDS011;6437;53.686;10.030;2023-02-28T00:27:09;7.05;;;1.27;;
12745;SDS011;6437;53.686;10.030;2023-02-28T00:30:12;9.30;;;1.77;;
12745;SDS011;6437;53.686;10.030;2023-02-28T00:33:15;9.38;;;1.95;;
12745;SDS011;6437;53.686;10.030;2023-02-28T00:36:17;10.95;;;2.10;;
12745;SDS011;6437;53.686;10.030;2023-02-28T00:39:20;11.90;;;2.17;;
12745;SDS011;6437;53.686;10.030;2023-02-28T00:42:22;11.77;;;1.95;;
12745;SDS011;6437;53.686;10.030;2023-02-28T00:45:24;5.63;;;0.90;;
12745;SDS011;6437;53.686;10.030;2023-02-28T00:48:26;7.72;;;1.10;;
12745;SDS011;6437;53.686;10.030;2023-02-28T00:51:28;11.55;;;1.67;;
12745;SDS011;6437;53.686;10.030;2023-02-28T00:54:31;18.52;;;2.90;;
12745;SDS011;6437;53.686;10.030;2023-02-28T00:57:32;6.78;;;1.60;;
12745;SDS011;6437;53.686;10.030;2023-02-28T01:00:34;9.05;;;2.90;;
12745;SDS011;6437;53.686;10.030;2023-02-28T01:03:36;10.32;;;1.52;;
12745;SDS011;6437;53.686;10.030;2023-02-28T01:06:38;8.63;;;1.98;;
12745;SDS011;6437;53.686;10.030;2023-02-28T01:09:41;10.90;;;2.58;;
12745;SDS011;6437;53.686;10.030;2023-02-28T01:12:43;6.80;;;1.98;;
12745;SDS011;6437;53.686;10.030;2023-02-28T01:15:45;10.20;;;2.78;;
12745;SDS011;6437;53.686;10.030;2023-02-28T01:18:50;10.45;;;2.08;;
12745;SDS011;6437;53.686;10.030;2023-02-28T01:21:52;13.95;;;1.85;;
12745;SDS011;6437;53.686;10.030;2023-02-28T01:24:55;17.27;;;2.97;;
12745;SDS011;6437;53.686;10.030;2023-02-28T01:27:57;9.95;;;2.47;;
12745;SDS011;6437;53.686;10.030;2023-02-28T01:30:59;12.90;;;2.90;;
12745;SDS011;6437;53.686;10.030;2023-02-28T01:34:00;9.88;;;2.55;;
12745;SDS011;6437;53.686;10.030;2023-02-28T01:37:02;15.93;;;3.28;;
12745;SDS011;6437;53.686;10.030;2023-02-28T01:40:06;9.68;;;2.88;;
12745;SDS011;6437;53.686;10.030;2023-02-28T01:43:10;14.18;;;2.80;;
12745;SDS011;6437;53.686;10.030;2023-02-28T01:46:22;15.13;;;3.47;;
12745;SDS011;6437;53.686;10.030;2023-02-28T01:49:24;9.38;;;3.00;;
12745;SDS011;6437;53.686;10.030;2023-02-28T01:52:26;16.92;;;3.25;;
12745;SDS011;6437;53.686;10.030;2023-02-28T01:55:30;10.53;;;3.50;;
12745;SDS011;6437;53.686;10.030;2023-02-28T01:58:33;17.40;;;4.53;;
12745;SDS011;6437;53.686;10.030;2023-02-28T02:01:37;15.35;;;3.45;;
12745;SDS011;6437;53.686;10.030;2023-02-28T02:04:39;16.05;;;3.35;;
12745;SDS011;6437;53.686;10.030;2023-02-28T02:07:47;11.98;;;3.25;;
12745;SDS011;6437;53.686;10.030;2023-02-28T02:10:55;11.43;;;4.15;;
12745;SDS011;6437;53.686;10.030;2023-02-28T02:14:02;18.73;;;3.97;;
12745;SDS011;6437;53.686;10.030;2023-02-28T02:17:20;12.35;;;2.88;;
12745;SDS011;6437;53.686;10.030;2023-02-28T02:24:09;9.70;;;2.83;;
12745;SDS011;6437;53.686;10.030;2023-02-28T02:27:36;12.73;;;3.92;;
12745;SDS011;6437;53.686;10.030;2023-02-28T02:30:58;19.20;;;3.40;;
12745;SDS011;6437;53.686;10.030;2023-02-28T02:34:27;11.10;;;3.65;;
12745;SDS011;6437;53.686;10.030;2023-02-28T02:37:42;19.45;;;3.47;;
12745;SDS011;6437;53.686;10.030;2023-02-28T02:40:56;9.70;;;3.63;;
12745;SDS011;6437;53.686;10.030;2023-02-28T02:44:02;14.30;;;3.55;;
12745;SDS011;6437;53.686;10.030;2023-02-28T02:47:08;9.70;;;2.53;;
12745;SDS011;6437;53.686;10.030;2023-02-28T02:50:15;13.15;;;3.78;;
12745;SDS011;6437;53.686;10.030;2023-02-28T02:53:24;11.07;;;3.53;;
12745;SDS011;6437;53.686;10.030;2023-02-28T02:56:31;17.52;;;2.97;;
12745;SDS011;6437;53.686;10.030;2023-02-28T02:59:35;8.50;;;2.40;;
12745;SDS011;6437;53.686;10.030;2023-02-28T03:02:40;10.43;;;3.25;;
12745;SDS011;6437;53.686;10.030;2023-02-28T03:05:46;14.77;;;4.05;;
12745;SDS011;6437;53.686;10.030;2023-02-28T03:08:49;8.13;;;2.45;;
12745;SDS011;6437;53.686;10.030;2023-02-28T03:11:51;16.98;;;4.18;;
12745;SDS011;6437;53.686;10.030;2023-02-28T03:14:59;9.52;;;2.83;;
12745;SDS011;6437;53.686;10.030;2023-02-28T03:18:10;12.98;;;3.50;;
12745;SDS011;6437;53.686;10.030;2023-02-28T03:21:26;6.72;;;2.53;;
12745;SDS011;6437;53.686;10.030;2023-02-28T03:24:34;17.17;;;3.45;;
12745;SDS011;6437;53.686;10.030;2023-02-28T03:27:45;17.63;;;3.40;;
12745;SDS011;6437;53.686;10.030;2023-02-28T03:30:56;8.73;;;1.83;;
12745;SDS011;6437;53.686;10.030;2023-02-28T03:34:03;13.98;;;3.53;;
12745;SDS011;6437;53.686;10.030;2023-02-28T03:37:10;10.27;;;2.60;;
12745;SDS011;6437;53.686;10.030;2023-02-28T03:40:17;15.13;;;3.05;;
12745;SDS011;6437;53.686;10.030;2023-02-28T03:43:23;12.50;;;2.22;;
12745;SDS011;6437;53.686;10.030;2023-02-28T03:46:30;12.45;;;2.15;;
12745;SDS011;6437;53.686;10.030;2023-02-28T03:49:38;7.03;;;2.05;;
12745;SDS011;6437;53.686;10.030;2023-02-28T03:52:46;10.63;;;2.15;;
12745;SDS011;6437;53.686;10.030;2023-02-28T03:55:51;9.40;;;1.73;;
12745;SDS011;6437;53.686;10.030;2023-02-28T03:58:57;12.60;;;2.45;;
12745;SDS011;6437;53.686;10.030;2023-02-28T04:02:03;12.05;;;2.85;;
12745;SDS011;6437;53.686;10.030;2023-02-28T04:05:05;8.25;;;1.95;;
12745;SDS011;6437;53.686;10.030;2023-02-28T04:08:09;8.38;;;1.75;;
12745;SDS011;6437;53.686;10.030;2023-02-28T04:11:14;7.93;;;1.95;;
12745;SDS011;6437;53.686;10.030;2023-02-28T04:14:20;8.65;;;2.17;;
12745;SDS011;6437;53.686;10.030;2023-02-28T04:17:22;9.73;;;3.65;;
12745;SDS011;6437;53.686;10.030;2023-02-28T04:20:24;14.07;;;2.60;;
12745;SDS011;6437;53.686;10.030;2023-02-28T04:23:27;9.52;;;2.22;;
12745;SDS011;6437;53.686;10.030;2023-02-28T04:26:29;9.75;;;2.22;;
12745;SDS011;6437;53.686;10.030;2023-02-28T04:29:32;5.13;;;1.80;;
12745;SDS011;6437;53.686;10.030;2023-02-28T04:32:33;10.63;;;2.60;;
12745;SDS011;6437;53.686;10.030;2023-02-28T04:35:35;8.05;;;1.73;;
12745;SDS011;6437;53.686;10.030;2023-02-28T04:38:38;12.00;;;2.45;;
12745;SDS011;6437;53.686;10.030;2023-02-28T04:41:40;11.95;;;2.28;;
12745;SDS011;6437;53.686;10.030;2023-02-28T04:44:42;9.85;;;1.73;;
12745;SDS011;6437;53.686;10.030;2023-02-28T04:47:44;13.77;;;2.38;;
12745;SDS011;6437;53.686;10.030;2023-02-28T04:50:46;9.18;;;2.47;;
12745;SDS011;6437;53.686;10.030;2023-02-28T04:53:50;10.43;;;2.10;;
12745;SDS011;6437;53.686;10.030;2023-02-28T04:56:52;13.73;;;2.78;;
12745;SDS011;6437;53.686;10.030;2023-02-28T04:59:54;10.52;;;2.00;;
12745;SDS011;6437;53.686;10.030;2023-02-28T05:02:56;4.95;;;1.13;;
12745;SDS011;6437;53.686;10.030;2023-02-28T05:05:58;18.38;;;2.40;;
12745;SDS011;6437;53.686;10.030;2023-02-28T05:09:01;10.35;;;2.15;;
12745;SDS011;6437;53.686;10.030;2023-02-28T05:12:03;18.20;;;3.50;;
12745;SDS011;6437;53.686;10.030;2023-02-28T05:15:05;9.00;;;2.38;;
12745;SDS011;6437;53.686;10.030;2023-02-28T05:18:09;12.35;;;2.90;;
12745;SDS011;6437;53.686;10.030;2023-02-28T05:21:22;8.68;;;2.45;;
12745;SDS011;6437;53.686;10.030;2023-02-28T05:24:27;11.73;;;2.72;;
12745;SDS011;6437;53.686;10.030;2023-02-28T05:27:29;10.98;;;2.13;;
12745;SDS011;6437;53.686;10.030;2023-02-28T05:30:31;8.63;;;2.03;;
12745;SDS011;6437;53.686;10.030;2023-02-28T05:33:32;9.25;;;2.33;;
12745;SDS011;6437;53.686;10.030;2023-02-28T05:36:36;8.07;;;1.70;;
12745;SDS011;6437;53.686;10.030;2023-02-28T05:39:39;8.43;;;2.13;;
12745;SDS011;6437;53.686;10.030;2023-02-28T05:42:41;6.85;;;1.63;;
12745;SDS011;6437;53.686;10.030;2023-02-28T05:45:43;20.00;;;2.90;;
12745;SDS011;6437;53.686;10.030;2023-02-28T05:48:45;10.10;;;1.80;;
12745;SDS011;6437;53.686;10.030;2023-02-28T05:51:48;11.93;;;2.50;;
12745;SDS011;6437;53.686;10.030;2023-02-28T05:54:51;7.95;;;1.58;;
12745;SDS011;6437;53.686;10.030;2023-02-28T05:57:53;15.73;;;3.00;;
12745;SDS011;6437;53.686;10.030;2023-02-28T06:00:55;7.40;;;2.13;;
12745;SDS011;6437;53.686;10.030;2023-02-28T06:03:58;16.10;;;2.92;;
12745;SDS011;6437;53.686;10.030;2023-02-28T06:07:00;11.95;;;2.53;;
12745;SDS011;6437;53.686;10.030;2023-02-28T06:10:05;23.90;;;3.70;;
12745;SDS011;6437;53.686;10.030;2023-02-28T06:13:07;18.27;;;4.80;;
12745;SDS011;6437;53.686;10.030;2023-02-28T06:16:10;20.05;;;4.53;;
12745;SDS011;6437;53.686;10.030;2023-02-28T06:19:12;12.40;;;2.55;;
12745;SDS011;6437;53.686;10.030;2023-02-28T06:22:15;10.60;;;3.03;;
12745;SDS011;6437;53.686;10.030;2023-02-28T06:25:18;6.97;;;2.17;;
12745;SDS011;6437;53.686;10.030;2023-02-28T06:28:20;11.43;;;3.88;;
12745;SDS011;6437;53.686;10.030;2023-02-28T06:31:22;18.30;;;2.78;;
12745;SDS011;6437;53.686;10.030;2023-02-28T06:34:25;13.93;;;2.90;;
12745;SDS011;6437;53.686;10.030;2023-02-28T06:37:27;8.90;;;2.80;;
12745;SDS011;6437;53.686;10.030;2023-02-28T06:40:30;12.60;;;2.28;;
12745;SDS011;6437;53.686;10.030;2023-02-28T06:43:36;13.57;;;2.80;;
12745;SDS011;6437;53.686;10.030;2023-02-28T06:46:40;9.48;;;2.60;;
12745;SDS011;6437;53.686;10.030;2023-02-28T06:49:42;21.42;;;3.60;;
12745;SDS011;6437;53.686;10.030;2023-02-28T06:52:45;17.48;;;2.80;;
12745;SDS011;6437;53.686;10.030;2023-02-28T06:55:48;13.57;;;4.25;;
12745;SDS011;6437;53.686;10.030;2023-02-28T06:58:50;14.68;;;3.08;;
12745;SDS011;6437;53.686;10.030;2023-02-28T07:01:52;17.38;;;3.25;;
12745;SDS011;6437;53.686;10.030;2023-02-28T07:04:54;17.83;;;4.90;;
12745;SDS011;6437;53.686;10.030;2023-02-28T07:07:56;22.27;;;5.43;;
12745;SDS011;6437;53.686;10.030;2023-02-28T07:10:59;18.77;;;6.13;;
12745;SDS011;6437;53.686;10.030;2023-02-28T07:14:01;9.25;;;3.35;;
12745;SDS011;6437;53.686;10.030;2023-02-28T07:17:03;12.80;;;4.32;;
12745;SDS011;6437;53.686;10.030;2023-02-28T07:20:05;17.73;;;4.47;;
12745;SDS011;6437;53.686;10.030;2023-02-28T07:26:12;15.25;;;3.78;;
12745;SDS011;6437;53.686;10.030;2023-02-28T07:29:16;12.73;;;4.35;;
12745;SDS011;6437;53.686;10.030;2023-02-28T07:32:18;12.95;;;4.53;;
12745;SDS011;6437;53.686;10.030;2023-02-28T07:35:20;17.40;;;5.15;;
12745;SDS011;6437;53.686;10.030;2023-02-28T07:38:22;14.50;;;4.53;;
12745;SDS011;6437;53.686;10.030;2023-02-28T07:41:25;18.20;;;4.97;;
12745;SDS011;6437;53.686;10.030;2023-02-28T07:47:29;11.93;;;3.72;;
12745;SDS011;6437;53.686;10.030;2023-02-28T07:50:31;17.17;;;3.70;;
12745;SDS011;6437;53.686;10.030;2023-02-28T07:53:34;15.35;;;3.55;;
12745;SDS011;6437;53.686;10.030;2023-02-28T07:56:37;13.65;;;3.67;;
12745;SDS011;6437;53.686;10.030;2023-02-28T07:59:39;17.60;;;4.40;;
12745;SDS011;6437;53.686;10.030;2023-02-28T08:02:41;17.20;;;4.80;;
12745;SDS011;6437;53.686;10.030;2023-02-28T08:05:43;23.45;;;5.43;;
12745;SDS011;6437;53.686;10.030;2023-02-28T08:08:45;10.88;;;3.78;;
12745;SDS011;6437;53.686;10.030;2023-02-28T08:11:48;11.88;;;3.90;;
12745;SDS011;6437;53.686;10.030;2023-02-28T08:14:50;14.38;;;4.32;;
12745;SDS011;6437;53.686;10.030;2023-02-28T08:17:52;8.02;;;1.98;;
12745;SDS011;6437;53.686;10.030;2023-02-28T08:20:56;11.32;;;3.30;;
12745;SDS011;6437;53.686;10.030;2023-02-28T08:23:58;14.35;;;2.70;;
12745;SDS011;6437;53.686;10.030;2023-02-28T08:27:01;5.53;;;1.90;;
12745;SDS011;6437;53.686;10.030;2023-02-28T08:30:03;13.80;;;1.75;;
12745;SDS011;6437;53.686;10.030;2023-02-28T08:33:06;9.77;;;1.88;;
12745;SDS011;6437;53.686;10.030;2023-02-28T08:36:08;9.98;;;1.83;;
12745;SDS011;6437;53.686;10.030;2023-02-28T08:39:10;17.08;;;2.17;;
12745;SDS011;6437;53.686;10.030;2023-02-28T08:42:13;10.80;;;1.23;;
12745;SDS011;6437;53.686;10.030;2023-02-28T08:45:15;6.25;;;1.02;;
12745;SDS011;6437;53.686;10.030;2023-02-28T08:48:17;6.50;;;0.70;;
12745;SDS011;6437;53.686;10.030;2023-02-28T08:51:19;7.18;;;1.13;;
12745;SDS011;6437;53.686;10.030;2023-02-28T08:54:26;6.57;;;1.05;;
12745;SDS011;6437;53.686;10.030;2023-02-28T08:57:32;6.75;;;2.40;;
12745;SDS011;6437;53.686;10.030;2023-02-28T09:00:37;9.48;;;1.88;;
12745;SDS011;6437;53.686;10.030;2023-02-28T09:03:39;9.15;;;1.17;;
12745;SDS011;6437;53.686;10.030;2023-02-28T09:06:41;5.68;;;0.80;;
12745;SDS011;6437;53.686;10.030;2023-02-28T09:09:44;7.60;;;1.20;;
12745;SDS011;6437;53.686;10.030;2023-02-28T09:12:55;11.63;;;1.13;;
12745;SDS011;6437;53.686;10.030;2023-02-28T09:15:57;15.38;;;0.65;;
12745;SDS011;6437;53.686;10.030;2023-02-28T09:19:00;4.72;;;0.68;;
12745;SDS011;6437;53.686;10.030;2023-02-28T09:22:02;3.53;;;0.60;;
12745;SDS011;6437;53.686;10.030;2023-02-28T09:25:04;8.10;;;0.50;;
12745;SDS011;6437;53.686;10.030;2023-02-28T09:28:08;11.65;;;1.67;;
12745;SDS011;6437;53.686;10.030;2023-02-28T09:31:13;3.17;;;0.60;;
12745;SDS011;6437;53.686;10.030;2023-02-28T09:34:16;8.32;;;1.00;;
12745;SDS011;6437;53.686;10.030;2023-02-28T09:37:18;8.50;;;0.82;;
12745;SDS011;6437;53.686;10.030;2023-02-28T09:40:20;5.70;;;0.93;;
12745;SDS011;6437;53.686;10.030;2023-02-28T09:43:26;6.35;;;0.80;;
12745;SDS011;6437;53.686;10.030;2023-02-28T09:46:33;5.93;;;0.75;;
12745;SDS011;6437;53.686;10.030;2023-02-28T09:49:40;6.32;;;0.82;;
12745;SDS011;6437;53.686;10.030;2023-02-28T09:52:46;4.63;;;1.15;;
12745;SDS011;6437;53.686;10.030;2023-02-28T09:55:51;10.00;;;0.77;;
12745;SDS011;6437;53.686;10.030;2023-02-28T09:58:58;3.20;;;0.77;;
12745;SDS011;6437;53.686;10.030;2023-02-28T10:02:04;7.05;;;0.70;;
12745;SDS011;6437;53.686;10.030;2023-02-28T10:05:17;4.38;;;0.50;;
12745;SDS011;6437;53.686;10.030;2023-02-28T10:08:23;4.85;;;0.65;;
12745;SDS011;6437;53.686;10.030;2023-02-28T10:11:29;10.65;;;0.70;;
12745;SDS011;6437;53.686;10.030;2023-02-28T10:14:35;3.88;;;0.40;;
12745;SDS011;6437;53.686;10.030;2023-02-28T10:17:43;3.95;;;0.70;;
12745;SDS011;6437;53.686;10.030;2023-02-28T10:20:48;6.82;;;0.60;;
12745;SDS011;6437;53.686;10.030;2023-02-28T10:23:53;3.10;;;0.30;;
12745;SDS011;6437;53.686;10.030;2023-02-28T10:27:06;4.80;;;0.68;;
12745;SDS011;6437;53.686;10.030;2023-02-28T10:30:15;6.75;;;0.45;;
12745;SDS011;6437;53.686;10.030;2023-02-28T10:33:18;4.68;;;1.10;;
12745;SDS011;6437;53.686;10.030;2023-02-28T10:36:23;6.72;;;1.05;;
12745;SDS011;6437;53.686;10.030;2023-02-28T10:39:35;3.47;;;0.68;;
12745;SDS011;6437;53.686;10.030;2023-02-28T10:42:38;2.90;;;0.40;;
12745;SDS011;6437;53.686;10.030;2023-02-28T10:45:51;2.55;;;0.43;;
12745;SDS011;6437;53.686;10.030;2023-02-28T10:49:00;10.18;;;0.50;;
12745;SDS011;6437;53.686;10.030;2023-02-28T10:52:03;8.88;;;0.60;;
12745;SDS011;6437;53.686;10.030;2023-02-28T10:55:15;4.05;;;0.93;;
12745;SDS011;6437;53.686;10.030;2023-02-28T10:58:21;3.30;;;0.52;;
12745;SDS011;6437;53.686;10.030;2023-02-28T11:01:34;4.27;;;0.70;;
12745;SDS011;6437;53.686;10.030;2023-02-28T11:04:38;7.15;;;0.73;;
12745;SDS011;6437;53.686;10.030;2023-02-28T11:07:40;6.22;;;0.55;;
12745;SDS011;6437;53.686;10.030;2023-02-28T11:10:44;2.50;;;0.45;;
12745;SDS011;6437;53.686;10.030;2023-02-28T11:13:47;5.28;;;0.50;;
12745;SDS011;6437;53.686;10.030;2023-02-28T11:16:54;4.20;;;0.68;;
12745;SDS011;6437;53.686;10.030;2023-02-28T11:20:18;3.55;;;0.50;;
12745;SDS011;6437;53.686;10.030;2023-02-28T11:23:23;3.58;;;0.50;;
12745;SDS011;6437;53.686;10.030;2023-02-28T11:26:37;6.65;;;0.60;;
12745;SDS011;6437;53.686;10.030;2023-02-28T11:32:49;8.32;;;0.52;;
12745;SDS011;6437;53.686;10.030;2023-02-28T11:35:51;4.10;;;0.60;;
12745;SDS011;6437;53.686;10.030;2023-02-28T11:39:00;5.95;;;0.75;;
12745;SDS011;6437;53.686;10.030;2023-02-28T11:45:51;2.95;;;0.60;;
12745;SDS011;6437;53.686;10.030;2023-02-28T11:49:14;7.00;;;0.68;;
12745;SDS011;6437;53.686;10.030;2023-02-28T11:52:29;5.45;;;1.58;;
12745;SDS011;6437;53.686;10.030;2023-02-28T11:55:41;2.40;;;0.87;;
12745;SDS011;6437;53.686;10.030;2023-02-28T11:58:48;4.53;;;0.82;;
12745;SDS011;6437;53.686;10.030;2023-02-28T12:02:00;8.27;;;0.65;;
12745;SDS011;6437;53.686;10.030;2023-02-28T12:05:25;4.78;;;0.40;;
12745;SDS011;6437;53.686;10.030;2023-02-28T12:08:38;6.90;;;1.02;;
12745;SDS011;6437;53.686;10.030;2023-02-28T12:11:51;6.43;;;0.65;;
12745;SDS011;6437;53.686;10.030;2023-02-28T12:15:05;3.03;;;0.60;;
12745;SDS011;6437;53.686;10.030;2023-02-28T12:18:27;8.32;;;1.52;;
12745;SDS011;6437;53.686;10.030;2023-02-28T12:21:47;9.10;;;0.80;;
12745;SDS011;6437;53.686;10.030;2023-02-28T12:28:40;2.90;;;0.80;;
12745;SDS011;6437;53.686;10.030;2023-02-28T12:31:47;9.93;;;0.80;;
12745;SDS011;6437;53.686;10.030;2023-02-28T12:34:54;6.45;;;0.68;;
12745;SDS011;6437;53.686;10.030;2023-02-28T12:38:01;5.05;;;0.82;;
12745;SDS011;6437;53.686;10.030;2023-02-28T12:41:08;4.97;;;0.75;;
12745;SDS011;6437;53.686;10.030;2023-02-28T12:44:14;3.58;;;0.82;;
12745;SDS011;6437;53.686;10.030;2023-02-28T12:47:20;4.82;;;0.55;;
12745;SDS011;6437;53.686;10.030;2023-02-28T12:50:22;3.40;;;0.77;;
12745;SDS011;6437;53.686;10.030;2023-02-28T12:53:27;5.70;;;0.63;;
12745;SDS011;6437;53.686;10.030;2023-02-28T12:56:38;5.40;;;1.00;;
12745;SDS011;6437;53.686;10.030;2023-02-28T12:59:48;3.78;;;1.40;;
12745;SDS011;6437;53.686;10.030;2023-02-28T13:02:56;1.88;;;0.70;;
12745;SDS011;6437;53.686;10.030;2023-02-28T13:06:32;4.85;;;1.48;;
12745;SDS011;6437;53.686;10.030;2023-02-28T13:09:52;3.53;;;1.10;;
12745;SDS011;6437;53.686;10.030;2023-02-28T13:12:55;5.47;;;1.40;;
12745;SDS011;6437;53.686;10.030;2023-02-28T13:15:58;2.85;;;0.73;;
12745;SDS011;6437;53.686;10.030;2023-02-28T13:19:09;8.13;;;1.35;;
12745;SDS011;6437;53.686;10.030;2023-02-28T13:22:19;4.18;;;1.33;;
12745;SDS011;6437;53.686;10.030;2023-02-28T13:28:59;2.35;;;1.35;;
12745;SDS011;6437;53.686;10.030;2023-02-28T13:35:37;4.68;;;1.48;;
12745;SDS011;6437;53.686;10.030;2023-02-28T13:38:45;8.70;;;1.33;;
12745;SDS011;6437;53.686;10.030;2023-02-28T13:48:23;2.58;;;1.02;;
12745;SDS011;6437;53.686;10.030;2023-02-28T13:51:38;2.53;;;1.13;;
12745;SDS011;6437;53.686;10.030;2023-02-28T13:54:44;3.55;;;1.10;;
12745;SDS011;6437;53.686;10.030;2023-02-28T13:58:05;3.30;;;1.17;;
12745;SDS011;6437;53.686;10.030;2023-02-28T14:01:33;6.80;;;1.40;;
12745;SDS011;6437;53.686;10.030;2023-02-28T14:05:00;6.90;;;1.70;;
12745;SDS011;6437;53.686;10.030;2023-02-28T14:08:04;1.48;;;0.88;;
12745;SDS011;6437;53.686;10.030;2023-02-28T14:11:23;6.53;;;1.02;;
12745;SDS011;6437;53.686;10.030;2023-02-28T14:17:57;4.75;;;1.08;;
12745;SDS011;6437;53.686;10.030;2023-02-28T14:27:29;8.57;;;1.25;;
12745;SDS011;6437;53.686;10.030;2023-02-28T14:30:55;2.67;;;0.77;;
12745;SDS011;6437;53.686;10.030;2023-02-28T14:34:04;6.60;;;1.15;;
12745;SDS011;6437;53.686;10.030;2023-02-28T14:37:23;6.80;;;0.90;;
12745;SDS011;6437;53.686;10.030;2023-02-28T14:40:30;5.55;;;1.52;;
12745;SDS011;6437;53.686;10.030;2023-02-28T14:43:35;5.90;;;1.10;;
12745;SDS011;6437;53.686;10.030;2023-02-28T14:46:39;7.00;;;0.70;;
12745;SDS011;6437;53.686;10.030;2023-02-28T14:49:43;2.83;;;1.02;;
12745;SDS011;6437;53.686;10.030;2023-02-28T14:52:46;4.60;;;1.02;;
12745;SDS011;6437;53.686;10.030;2023-02-28T14:55:52;3.10;;;1.08;;
12745;SDS011;6437;53.686;10.030;2023-02-28T14:58:55;3.17;;;0.75;;
12745;SDS011;6437;53.686;10.030;2023-02-28T15:02:16;1.88;;;0.80;;
12745;SDS011;6437;53.686;10.030;2023-02-28T15:05:26;7.40;;;1.17;;
12745;SDS011;6437;53.686;10.030;2023-02-28T15:08:30;7.85;;;1.77;;
12745;SDS011;6437;53.686;10.030;2023-02-28T15:11:36;2.85;;;0.88;;
12745;SDS011;6437;53.686;10.030;2023-02-28T15:14:42;3.30;;;1.15;;
12745;SDS011;6437;53.686;10.030;2023-02-28T15:17:46;3.38;;;0.98;;
12745;SDS011;6437;53.686;10.030;2023-02-28T15:20:53;7.80;;;1.23;;
12745;SDS011;6437;53.686;10.030;2023-02-28T15:23:58;2.50;;;0.80;;
12745;SDS011;6437;53.686;10.030;2023-02-28T15:27:04;2.60;;;0.68;;
12745;SDS011;6437;53.686;10.030;2023-02-28T15:30:13;3.10;;;0.98;;
12745;SDS011;6437;53.686;10.030;2023-02-28T15:33:20;9.18;;;0.80;;
12745;SDS011;6437;53.686;10.030;2023-02-28T15:36:24;6.75;;;0.60;;
12745;SDS011;6437;53.686;10.030;2023-02-28T15:39:28;2.45;;;0.63;;
12745;SDS011;6437;53.686;10.030;2023-02-28T15:42:30;4.82;;;1.08;;
12745;SDS011;6437;53.686;10.030;2023-02-28T15:45:33;3.03;;;0.70;;
12745;SDS011;6437;53.686;10.030;2023-02-28T15:48:44;2.83;;;0.82;;
12745;SDS011;6437;53.686;10.030;2023-02-28T15:51:52;3.97;;;0.98;;
12745;SDS011;6437;53.686;10.030;2023-02-28T15:54:56;4.32;;;1.17;;
12745;SDS011;6437;53.686;10.030;2023-02-28T15:58:00;4.68;;;1.02;;
12745;SDS011;6437;53.686;10.030;2023-02-28T16:04:12;3.50;;;1.10;;
12745;SDS011;6437;53.686;10.030;2023-02-28T16:07:16;2.75;;;0.90;;
12745;SDS011;6437;53.686;10.030;2023-02-28T16:10:18;4.07;;;1.63;;
12745;SDS011;6437;53.686;10.030;2023-02-28T16:13:20;13.80;;;1.90;;
12745;SDS011;6437;53.686;10.030;2023-02-28T16:16:23;8.40;;;1.40;;
12745;SDS011;6437;53.686;10.030;2023-02-28T16:19:27;4.30;;;1.13;;
12745;SDS011;6437;53.686;10.030;2023-02-28T16:22:29;4.10;;;1.02;;
12745;SDS011;6437;53.686;10.030;2023-02-28T16:25:33;4.13;;;1.15;;
12745;SDS011;6437;53.686;10.030;2023-02-28T16:28:39;7.47;;;1.45;;
12745;SDS011;6437;53.686;10.030;2023-02-28T16:31:41;2.78;;;1.00;;
12745;SDS011;6437;53.686;10.030;2023-02-28T16:34:44;4.88;;;1.83;;
12745;SDS011;6437;53.686;10.030;2023-02-28T16:37:46;4.10;;;1.35;;
12745;SDS011;6437;53.686;10.030;2023-02-28T16:40:49;5.13;;;1.08;;
12745;SDS011;6437;53.686;10.030;2023-02-28T16:43:52;12.98;;;2.08;;
12745;SDS011;6437;53.686;10.030;2023-02-28T16:46:59;19.23;;;2.53;;
12745;SDS011;6437;53.686;10.030;2023-02-28T16:50:08;11.25;;;1.63;;
12745;SDS011;6437;53.686;10.030;2023-02-28T16:53:13;6.65;;;2.08;;
12745;SDS011;6437;53.686;10.030;2023-02-28T16:56:16;9.10;;;2.03;;
12745;SDS011;6437;53.686;10.030;2023-02-28T16:59:21;10.90;;;2.70;;
12745;SDS011;6437;53.686;10.030;2023-02-28T17:02:24;7.15;;;2.67;;
12745;SDS011;6437;53.686;10.030;2023-02-28T17:05:27;6.45;;;1.67;;
12745;SDS011;6437;53.686;10.030;2023-02-28T17:08:37;15.95;;;2.33;;
12745;SDS011;6437;53.686;10.030;2023-02-28T17:11:39;9.98;;;2.75;;
12745;SDS011;6437;53.686;10.030;2023-02-28T17:14:43;7.30;;;2.97;;
12745;SDS011;6437;53.686;10.030;2023-02-28T17:17:45;9.65;;;3.70;;
12745;SDS011;6437;53.686;10.030;2023-02-28T17:20:50;12.43;;;4.18;;
12745;SDS011;6437;53.686;10.030;2023-02-28T17:23:51;9.70;;;3.25;;
12745;SDS011;6437;53.686;10.030;2023-02-28T17:26:53;9.52;;;2.38;;
12745;SDS011;6437;53.686;10.030;2023-02-28T17:29:55;14.57;;;2.90;;
12745;SDS011;6437;53.686;10.030;2023-02-28T17:32:57;9.25;;;2.25;;
12745;SDS011;6437;53.686;10.030;2023-02-28T17:36:00;8.43;;;2.17;;
12745;SDS011;6437;53.686;10.030;2023-02-28T17:39:02;13.05;;;3.50;;
12745;SDS011;6437;53.686;10.030;2023-02-28T17:42:09;8.38;;;3.22;;
12745;SDS011;6437;53.686;10.030;2023-02-28T17:45:12;8.52;;;2.97;;
12745;SDS011;6437;53.686;10.030;2023-02-28T17:48:14;20.67;;;3.80;;
12745;SDS011;6437;53.686;10.030;2023-02-28T17:51:19;13.48;;;4.07;;
12745;SDS011;6437;53.686;10.030;2023-02-28T17:54:23;19.70;;;2.85;;
12745;SDS011;6437;53.686;10.030;2023-02-28T17:57:25;5.68;;;2.35;;
12745;SDS011;6437;53.686;10.030;2023-02-28T18:00:27;9.85;;;2.88;;
12745;SDS011;6437;53.686;10.030;2023-02-28T18:03:29;13.52;;;3.00;;
12745;SDS011;6437;53.686;10.030;2023-02-28T18:06:35;12.13;;;3.67;;
12745;SDS011;6437;53.686;10.030;2023-02-28T18:09:46;15.43;;;3.47;;
12745;SDS011;6437;53.686;10.030;2023-02-28T18:12:48;5.05;;;2.42;;
12745;SDS011;6437;53.686;10.030;2023-02-28T18:15:51;9.52;;;4.00;;
12745;SDS011;6437;53.686;10.030;2023-02-28T18:18:53;17.90;;;5.00;;
12745;SDS011;6437;53.686;10.030;2023-02-28T18:21:56;14.48;;;4.32;;
12745;SDS011;6437;53.686;10.030;2023-02-28T18:24:58;16.90;;;4.68;;
12745;SDS011;6437;53.686;10.030;2023-02-28T18:28:00;11.93;;;5.55;;
12745;SDS011;6437;53.686;10.030;2023-02-28T18:31:05;14.18;;;5.97;;
12745;SDS011;6437;53.686;10.030;2023-02-28T18:34:07;13.88;;;4.97;;
12745;SDS011;6437;53.686;10.030;2023-02-28T18:37:10;23.05;;;6.22;;
12745;SDS011;6437;53.686;10.030;2023-02-28T18:40:12;15.63;;;5.10;;
12745;SDS011;6437;53.686;10.030;2023-02-28T18:43:14;13.45;;;5.20;;
12745;SDS011;6437;53.686;10.030;2023-02-28T18:46:17;12.07;;;5.72;;
12745;SDS011;6437;53.686;10.030;2023-02-28T18:49:20;11.95;;;5.45;;
12745;SDS011;6437;53.686;10.030;2023-02-28T18:52:23;15.23;;;6.88;;
12745;SDS011;6437;53.686;10.030;2023-02-28T18:55:25;14.52;;;5.25;;
12745;SDS011;6437;53.686;10.030;2023-02-28T18:58:27;20.65;;;7.65;;
12745;SDS011;6437;53.686;10.030;2023-02-28T19:01:28;16.25;;;7.10;;
12745;SDS011;6437;53.686;10.030;2023-02-28T19:04:31;11.90;;;5.43;;
12745;SDS011;6437;53.686;10.030;2023-02-28T19:07:35;17.80;;;7.40;;
12745;SDS011;6437;53.686;10.030;2023-02-28T19:10:37;19.42;;;8.70;;
12745;SDS011;6437;53.686;10.030;2023-02-28T19:13:39;13.70;;;7.25;;
12745;SDS011;6437;53.686;10.030;2023-02-28T19:16:44;15.80;;;7.80;;
12745;SDS011;6437;53.686;10.030;2023-02-28T19:19:46;15.20;;;6.53;;